Time;durP1;ratioP1;P1;durP2;ratioP2;P2;SDS_P1;SDS_P2;PMS_P1;PMS_P2;Temp;Humidity;BMP_temperature;BMP_pressure;BME280_temperature;BME280_humidity;BME280_pressure;Samples;Min_cycle;Max_cycle;Signal;HPM_P1;HPM_P2
2020/12/22 00:00:17;;;;;;;16.95;9.15;;;8.70;90.40;;;;;;5030792;28;20019;-67
2020/12/22 00:02:46;;;;;;;13.88;9.05;;;8.80;90.50;;;;;;5024959;28;20501;-66
2020/12/22 00:05:13;;;;;;;18.38;8.77;;;8.80;90.40;;;;;;5031256;28;20477;-69
2020/12/22 00:07:39;;;;;;;15.73;9.15;;;8.80;90.50;;;;;;5031363;28;20052;-67
2020/12/22 00:10:07;;;;;;;13.30;7.70;;;8.80;90.50;;;;;;5033433;28;20025;-66
2020/12/22 00:12:33;;;;;;;16.20;8.85;;;8.90;90.60;;;;;;5032104;28;20417;-64
2020/12/22 00:14:59;;;;;;;14.15;7.90;;;8.90;90.70;;;;;;5032202;28;20478;-64
2020/12/22 00:17:26;;;;;;;13.93;6.95;;;8.90;90.80;;;;;;5033558;28;20125;-64
2020/12/22 00:19:51;;;;;;;12.55;6.97;;;8.90;90.80;;;;;;5033094;28;20481;-64
2020/12/22 00:22:17;;;;;;;10.77;6.93;;;8.90;90.80;;;;;;5014990;28;20040;-63
2020/12/22 00:24:43;;;;;;;11.35;6.68;;;9.00;90.90;;;;;;5032923;28;20033;-64
2020/12/22 00:27:08;;;;;;;13.27;6.75;;;9.00;90.90;;;;;;5032678;28;20026;-64
2020/12/22 00:29:34;;;;;;;11.18;7.00;;;9.00;90.90;;;;;;5014844;28;20033;-64
2020/12/22 00:32:01;;;;;;;11.30;6.55;;;9.10;90.90;;;;;;5031355;28;20057;-64
2020/12/22 00:34:33;;;;;;;10.10;6.50;;;9.10;91.00;;;;;;5032344;28;20025;-63
2020/12/22 00:37:01;;;;;;;11.18;6.78;;;9.10;91.00;;;;;;5032705;28;20030;-64
2020/12/22 00:39:27;;;;;;;12.68;7.32;;;9.10;91.00;;;;;;5032630;28;20037;-65
2020/12/22 00:41:54;;;;;;;11.75;6.45;;;9.10;91.10;;;;;;5014395;28;20021;-64
2020/12/22 00:44:20;;;;;;;10.07;6.07;;;9.10;91.10;;;;;;5031831;28;20192;-64
2020/12/22 00:46:46;;;;;;;8.20;5.57;;;9.10;91.10;;;;;;5032542;28;20033;-64
2020/12/22 00:49:11;;;;;;;8.65;5.90;;;9.10;91.10;;;;;;5032646;28;20033;-64
2020/12/22 00:51:37;;;;;;;8.63;5.63;;;9.10;91.10;;;;;;5023293;28;20030;-64
2020/12/22 00:54:03;;;;;;;8.90;5.60;;;9.20;91.10;;;;;;5016543;28;20095;-64
2020/12/22 00:56:28;;;;;;;8.55;5.80;;;9.20;91.10;;;;;;5032146;28;20040;-65
2020/12/22 00:58:54;;;;;;;7.00;5.07;;;9.20;91.10;;;;;;5030355;28;20022;-65
2020/12/22 01:01:20;;;;;;;10.07;5.95;;;9.20;91.10;;;;;;5031615;28;20029;-63
2020/12/22 01:03:46;;;;;;;8.52;5.63;;;9.20;91.10;;;;;;5029334;28;20025;-64
2020/12/22 01:06:12;;;;;;;9.27;6.07;;;9.30;91.10;;;;;;5031552;28;20385;-63
2020/12/22 01:08:38;;;;;;;8.73;5.38;;;9.30;91.10;;;;;;5032975;28;20409;-63
2020/12/22 01:11:03;;;;;;;10.75;6.35;;;9.30;91.30;;;;;;5032232;28;20018;-64
2020/12/22 01:13:30;;;;;;;8.68;6.10;;;9.30;91.10;;;;;;5032073;28;20501;-66
2020/12/22 01:15:56;;;;;;;9.27;5.30;;;9.30;91.20;;;;;;5031500;28;20029;-64
2020/12/22 01:18:21;;;;;;;8.50;5.15;;;9.40;91.20;;;;;;5032363;28;20025;-64
2020/12/22 01:20:50;;;;;;;8.40;6.03;;;9.40;91.20;;;;;;5031925;28;20022;-64
2020/12/22 01:23:17;;;;;;;8.27;5.55;;;9.40;91.20;;;;;;5032085;28;20033;-64
2020/12/22 01:25:42;;;;;;;8.95;5.13;;;9.50;91.20;;;;;;5013527;28;20094;-64
2020/12/22 01:28:08;;;;;;;9.23;5.68;;;9.50;91.10;;;;;;5013616;28;20026;-64
2020/12/22 01:30:36;;;;;;;7.72;5.32;;;9.50;91.10;;;;;;5027378;28;20053;-64
2020/12/22 01:33:02;;;;;;;8.00;5.30;;;9.60;91.10;;;;;;5033969;28;20021;-65
2020/12/22 01:35:27;;;;;;;7.38;4.72;;;9.60;91.10;;;;;;5030497;28;20044;-65
2020/12/22 01:37:53;;;;;;;5.03;4.53;;;9.60;91.10;;;;;;5031684;28;20477;-64
2020/12/22 01:40:18;;;;;;;5.20;4.50;;;9.70;91.10;;;;;;5031181;28;20481;-64
2020/12/22 01:42:44;;;;;;;5.32;3.72;;;9.70;91.00;;;;;;5013309;28;20589;-64
2020/12/22 01:45:11;;;;;;;3.78;3.40;;;9.80;91.00;;;;;;5030966;28;20029;-64
2020/12/22 01:47:44;;;;;;;5.30;3.70;;;9.80;91.00;;;;;;5031226;28;20033;-63
2020/12/22 01:50:11;;;;;;;4.35;3.78;;;9.80;91.00;;;;;;5030807;28;20044;-64
2020/12/22 01:52:37;;;;;;;4.30;3.50;;;9.90;90.90;;;;;;5031143;28;20164;-64
2020/12/22 01:55:02;;;;;;;3.45;3.10;;;9.90;90.90;;;;;;5030297;28;20380;-64
2020/12/22 01:57:28;;;;;;;3.92;2.97;;;10.00;90.90;;;;;;5031213;28;20029;-65
2020/12/22 01:59:53;;;;;;;4.20;2.95;;;9.90;90.80;;;;;;5031133;28;20063;-65
2020/12/22 02:02:19;;;;;;;5.10;2.75;;;10.00;90.80;;;;;;5013483;28;20029;-64
2020/12/22 02:04:44;;;;;;;3.10;2.70;;;10.00;90.80;;;;;;5030128;28;20033;-64
2020/12/22 02:07:12;;;;;;;3.47;2.63;;;10.10;90.90;;;;;;5031239;28;20525;-64
2020/12/22 02:09:39;;;;;;;2.55;2.17;;;10.10;90.80;;;;;;5031018;28;20021;-65
2020/12/22 02:12:05;;;;;;;2.63;2.08;;;10.10;90.80;;;;;;5031046;28;20025;-64
2020/12/22 02:14:30;;;;;;;2.13;1.90;;;10.10;90.70;;;;;;5030952;28;20158;-65
2020/12/22 02:16:56;;;;;;;1.80;1.70;;;10.10;90.70;;;;;;5030747;28;20025;-65
2020/12/22 02:19:23;;;;;;;1.92;1.83;;;10.20;90.80;;;;;;5031120;28;20068;-64
2020/12/22 02:21:48;;;;;;;2.85;2.00;;;10.20;90.80;;;;;;5031173;28;20032;-64
2020/12/22 02:24:14;;;;;;;1.50;1.40;;;10.20;90.80;;;;;;5039433;28;20018;-66
2020/12/22 02:26:40;;;;;;;2.55;1.25;;;10.30;90.70;;;;;;5026023;28;20026;-64
2020/12/22 02:29:05;;;;;;;3.08;1.13;;;10.30;90.70;;;;;;5030611;28;20032;-64
2020/12/22 02:31:31;;;;;;;1.52;1.38;;;10.30;90.70;;;;;;5029774;28;20025;-65
2020/12/22 02:33:56;;;;;;;1.52;1.00;;;10.40;90.70;;;;;;5029991;28;20017;-65
2020/12/22 02:36:22;;;;;;;2.03;1.17;;;10.40;90.60;;;;;;5030321;28;20065;-64
2020/12/22 02:38:48;;;;;;;1.67;1.02;;;10.40;90.60;;;;;;5030224;28;20044;-63
2020/12/22 02:41:14;;;;;;;0.98;0.98;;;10.40;90.70;;;;;;5030531;28;20021;-64
2020/12/22 02:43:39;;;;;;;1.30;0.93;;;10.50;90.70;;;;;;5029380;28;20808;-64
2020/12/22 02:46:05;;;;;;;1.23;1.00;;;10.50;90.70;;;;;;5030382;28;20029;-66
2020/12/22 02:48:31;;;;;;;1.00;0.98;;;10.50;90.70;;;;;;5014870;28;20030;-65
2020/12/22 02:50:57;;;;;;;1.08;1.00;;;10.60;90.60;;;;;;5030413;28;20422;-64
2020/12/22 02:53:22;;;;;;;0.80;0.77;;;10.60;90.60;;;;;;5030052;28;20062;-64
2020/12/22 02:55:48;;;;;;;0.60;0.60;;;10.60;90.60;;;;;;5029652;28;20581;-63
2020/12/22 02:58:14;;;;;;;2.47;0.60;;;10.60;90.60;;;;;;5030252;28;20045;-66
2020/12/22 03:00:41;;;;;;;1.38;0.70;;;10.70;90.60;;;;;;5028200;28;20024;-64
2020/12/22 03:03:07;;;;;;;0.52;0.52;;;10.70;90.50;;;;;;5023595;28;20040;-63
2020/12/22 03:05:33;;;;;;;1.63;0.60;;;10.70;90.50;;;;;;5029396;28;20029;-64
2020/12/22 03:07:58;;;;;;;1.20;0.60;;;10.70;90.50;;;;;;5030083;28;20091;-63
2020/12/22 03:10:24;;;;;;;0.65;0.65;;;10.70;90.50;;;;;;5030408;28;20039;-64
2020/12/22 03:12:50;;;;;;;0.57;0.57;;;10.70;90.50;;;;;;5030204;28;20039;-65
2020/12/22 03:15:16;;;;;;;0.80;0.60;;;10.70;90.50;;;;;;5029638;28;20478;-66
2020/12/22 03:17:42;;;;;;;1.70;0.70;;;10.70;90.50;;;;;;5030608;28;20440;-65
2020/12/22 03:20:10;;;;;;;5.47;0.60;;;10.70;90.50;;;;;;5030291;28;20029;-64
2020/12/22 03:22:37;;;;;;;0.93;0.70;;;10.70;90.50;;;;;;5029505;28;20386;-64
2020/12/22 03:25:04;;;;;;;0.70;0.60;;;10.70;90.50;;;;;;5029426;28;20099;-65
2020/12/22 03:27:30;;;;;;;0.60;0.60;;;10.70;90.50;;;;;;5030139;28;20032;-66
2020/12/22 03:29:56;;;;;;;0.88;0.52;;;10.70;90.50;;;;;;5030097;28;20033;-66
2020/12/22 03:32:22;;;;;;;0.82;0.45;;;10.70;90.50;;;;;;5025656;28;20037;-64
2020/12/22 03:34:47;;;;;;;0.50;0.50;;;10.80;90.50;;;;;;5029733;28;20109;-64
2020/12/22 03:37:19;;;;;;;0.40;0.40;;;10.80;90.50;;;;;;5029577;28;20053;-65
2020/12/22 03:39:46;;;;;;;0.40;0.40;;;10.80;90.50;;;;;;5030089;28;20056;-64
2020/12/22 03:47:05;;;;;;;0.32;0.32;;;10.90;90.40;;;;;;5009019;28;20049;-75
2020/12/22 03:49:31;;;;;;;0.75;0.40;;;11.00;90.30;;;;;;4992909;28;20022;-74
2020/12/22 03:51:56;;;;;;;0.40;0.40;;;11.00;90.30;;;;;;4991995;28;20026;-74
2020/12/22 03:54:22;;;;;;;0.40;0.40;;;11.10;90.20;;;;;;5010696;28;20030;-74
2020/12/22 03:56:47;;;;;;;1.45;0.35;;;11.00;90.20;;;;;;5015941;28;20045;-73
2020/12/22 03:59:13;;;;;;;1.35;0.40;;;11.10;90.20;;;;;;4992657;28;20117;-71
2020/12/22 04:01:38;;;;;;;0.50;0.40;;;11.10;90.20;;;;;;5018207;28;20064;-74
2020/12/22 04:04:04;;;;;;;0.57;0.40;;;11.10;90.30;;;;;;5009288;28;20092;-74
2020/12/22 04:06:29;;;;;;;1.20;0.38;;;11.10;90.20;;;;;;5009804;28;20072;-74
2020/12/22 04:08:55;;;;;;;0.70;0.30;;;11.10;90.20;;;;;;5009747;28;20014;-74
2020/12/22 04:11:21;;;;;;;1.85;0.50;;;11.10;90.20;;;;;;5017712;28;20036;-73
2020/12/22 04:13:47;;;;;;;0.35;0.35;;;11.10;90.10;;;;;;5017622;28;20026;-73
2020/12/22 04:16:13;;;;;;;0.93;0.40;;;11.10;90.10;;;;;;5012793;28;20378;-73
2020/12/22 04:18:38;;;;;;;0.73;0.40;;;11.20;90.10;;;;;;4995671;28;20048;-74
2020/12/22 04:21:04;;;;;;;0.50;0.50;;;11.20;90.10;;;;;;5013399;28;20026;-73
2020/12/22 04:23:29;;;;;;;0.65;0.45;;;11.20;90.00;;;;;;5023916;28;20119;-75
2020/12/22 04:25:55;;;;;;;0.28;0.28;;;11.20;90.00;;;;;;5025246;28;20026;-74
2020/12/22 04:28:21;;;;;;;1.05;0.50;;;11.30;90.00;;;;;;5013357;28;20405;-74
2020/12/22 04:30:48;;;;;;;0.30;0.30;;;11.30;90.00;;;;;;5013173;28;20041;-73
2020/12/22 04:33:14;;;;;;;0.47;0.28;;;11.30;89.90;;;;;;5012684;28;20021;-74
2020/12/22 04:35:40;;;;;;;0.30;0.30;;;11.30;89.80;;;;;;5013134;28;20068;-74
2020/12/22 04:38:07;;;;;;;0.80;0.32;;;11.30;89.80;;;;;;5022137;28;20484;-72
2020/12/22 04:40:34;;;;;;;0.30;0.30;;;11.30;89.80;;;;;;5013216;28;20049;-73
2020/12/22 04:43:00;;;;;;;0.63;0.30;;;11.30;89.80;;;;;;4995409;28;20029;-73
2020/12/22 04:45:29;;;;;;;0.57;0.57;;;11.30;89.80;;;;;;4992567;28;20125;-74
2020/12/22 04:47:58;;;;;;;0.30;0.30;;;11.30;89.80;;;;;;5016278;28;20034;-74
2020/12/22 04:50:24;;;;;;;1.48;0.50;;;11.40;89.90;;;;;;5015689;28;20029;-73
2020/12/22 04:52:51;;;;;;;0.55;0.30;;;11.30;89.80;;;;;;5027651;28;20069;-74
2020/12/22 04:55:20;;;;;;;0.40;0.40;;;11.40;89.70;;;;;;5012133;28;20034;-73
2020/12/22 04:57:51;;;;;;;0.30;0.30;;;11.40;89.80;;;;;;5012571;28;20152;-73
2020/12/22 05:00:18;;;;;;;0.22;0.22;;;11.40;89.70;;;;;;5011725;28;20045;-74
2020/12/22 05:02:44;;;;;;;0.20;0.20;;;11.40;89.60;;;;;;5012586;28;20034;-74
2020/12/22 05:05:11;;;;;;;0.38;0.38;;;11.40;89.50;;;;;;4995197;28;20029;-74
2020/12/22 05:07:40;;;;;;;1.75;0.50;;;11.50;89.50;;;;;;4994598;28;20026;-74
2020/12/22 05:10:07;;;;;;;0.40;0.40;;;11.50;89.40;;;;;;5012650;28;20041;-74
2020/12/22 05:12:33;;;;;;;0.35;0.35;;;11.50;89.30;;;;;;5016448;28;20026;-74
2020/12/22 05:15:00;;;;;;;0.40;0.40;;;11.50;89.40;;;;;;5011816;28;20513;-74
2020/12/22 05:17:26;;;;;;;0.35;0.35;;;11.50;89.20;;;;;;5008697;28;20111;-74
2020/12/22 05:19:53;;;;;;;0.22;0.22;;;11.50;89.10;;;;;;5012545;28;20049;-73
2020/12/22 05:22:21;;;;;;;0.85;0.38;;;11.50;89.10;;;;;;5012172;28;20038;-73
2020/12/22 05:24:53;;;;;;;0.20;0.20;;;11.50;89.10;;;;;;4993247;28;20062;-73
2020/12/22 05:27:20;;;;;;;0.57;0.30;;;11.50;89.10;;;;;;5012188;28;20030;-73
2020/12/22 05:29:46;;;;;;;0.40;0.40;;;11.50;89.00;;;;;;4994229;28;20045;-73
2020/12/22 05:32:15;;;;;;;0.30;0.30;;;11.50;89.10;;;;;;5017716;28;20497;-73
2020/12/22 05:34:42;;;;;;;0.30;0.30;;;11.50;89.00;;;;;;5026462;28;20040;-73
2020/12/22 05:37:09;;;;;;;0.45;0.20;;;11.50;89.00;;;;;;5011766;28;20026;-73
2020/12/22 05:39:41;;;;;;;0.90;0.30;;;11.50;89.00;;;;;;5012070;28;20044;-73
2020/12/22 05:42:16;;;;;;;0.20;0.20;;;11.50;89.00;;;;;;5012025;28;20034;-73
2020/12/22 05:44:51;;;;;;;0.30;0.30;;;11.50;89.00;;;;;;5011449;28;20034;-73
2020/12/22 05:47:20;;;;;;;1.70;0.30;;;11.60;88.90;;;;;;5002998;28;20083;-73
2020/12/22 05:49:56;;;;;;;0.30;0.30;;;11.60;88.80;;;;;;5010856;28;20034;-73
2020/12/22 05:52:27;;;;;;;0.32;0.32;;;11.60;88.80;;;;;;5011215;28;20066;-73
2020/12/22 05:54:56;;;;;;;0.80;0.38;;;11.60;88.70;;;;;;5019310;28;20065;-73
2020/12/22 05:57:30;;;;;;;2.95;0.90;;;11.60;88.70;;;;;;4996531;28;20109;-74
2020/12/22 05:59:56;;;;;;;0.22;0.22;;;11.70;88.80;;;;;;5011424;28;20482;-73
2020/12/22 06:02:32;;;;;;;0.60;0.43;;;11.70;88.60;;;;;;5012706;28;20045;-74
2020/12/22 06:05:01;;;;;;;0.40;0.40;;;11.70;88.60;;;;;;5010629;28;20053;-73
2020/12/22 06:07:28;;;;;;;0.50;0.30;;;11.70;88.60;;;;;;5011417;28;20425;-70
2020/12/22 06:09:54;;;;;;;0.35;0.35;;;11.70;88.60;;;;;;5011318;28;20094;-72
2020/12/22 06:12:20;;;;;;;0.57;0.52;;;11.70;88.60;;;;;;5011005;28;20345;-73
2020/12/22 06:14:51;;;;;;;3.40;1.80;;;11.70;88.70;;;;;;5015746;28;20482;-73
2020/12/22 06:17:17;;;;;;;3.10;1.30;;;11.70;88.70;;;;;;5015636;28;20025;-73
2020/12/22 06:19:45;;;;;;;1.95;1.77;;;11.70;88.60;;;;;;5013006;28;20036;-73
2020/12/22 06:22:18;;;;;;;0.70;0.70;;;11.70;88.70;;;;;;5023597;28;20037;-73
2020/12/22 06:24:45;;;;;;;0.40;0.40;;;11.70;88.80;;;;;;5015295;28;20571;-73
2020/12/22 06:27:12;;;;;;;1.00;0.60;;;11.70;88.80;;;;;;5003889;28;20510;-73
2020/12/22 06:29:43;;;;;;;0.50;0.50;;;11.70;88.80;;;;;;5017452;28;20052;-73
2020/12/22 06:32:34;;;;;;;2.00;0.40;;;11.80;88.80;;;;;;5027494;28;20125;-73
2020/12/22 06:35:29;;;;;;;1.42;0.63;;;11.80;88.90;;;;;;5011588;28;20044;-74
2020/12/22 06:37:56;;;;;;;1.52;0.50;;;11.70;88.80;;;;;;5010498;28;20026;-73
2020/12/22 06:40:52;;;;;;;1.30;0.50;;;11.70;88.90;;;;;;5013930;28;20032;-73
2020/12/22 06:43:39;;;;;;;4.22;0.90;;;11.70;89.20;;;;;;5011751;28;20037;-73
2020/12/22 06:46:08;;;;;;;2.05;0.40;;;11.60;89.30;;;;;;5019665;28;20037;-74
2020/12/22 06:48:46;;;;;;;0.40;0.40;;;11.60;89.30;;;;;;5009872;28;20132;-73
2020/12/22 06:51:29;;;;;;;1.48;0.52;;;11.60;90.00;;;;;;5021019;28;20068;-73
2020/12/22 06:53:56;;;;;;;0.73;0.60;;;11.60;89.80;;;;;;5016840;28;20029;-73
2020/12/22 06:56:47;;;;;;;1.27;0.57;;;11.60;89.90;;;;;;5018020;28;20108;-73
2020/12/22 06:59:42;;;;;;;0.65;0.40;;;11.60;90.10;;;;;;5019781;28;20018;-73
2020/12/22 07:02:28;;;;;;;0.95;0.50;;;11.50;90.10;;;;;;5022234;28;20108;-73
2020/12/22 07:04:53;;;;;;;0.50;0.50;;;11.50;90.20;;;;;;4997294;28;20133;-73
2020/12/22 07:07:19;;;;;;;1.90;0.40;;;11.50;90.30;;;;;;5011475;28;20559;-73
2020/12/22 07:09:44;;;;;;;0.70;0.70;;;11.40;90.30;;;;;;5012042;28;20386;-73
2020/12/22 07:12:11;;;;;;;1.05;0.77;;;11.40;90.40;;;;;;5019094;28;20104;-73
2020/12/22 07:14:45;;;;;;;2.63;0.57;;;11.40;90.50;;;;;;5016576;28;20022;-73
2020/12/22 07:17:13;;;;;;;0.63;0.43;;;11.30;90.60;;;;;;5016271;28;20049;-73
2020/12/22 07:19:46;;;;;;;1.20;0.43;;;11.30;90.70;;;;;;5008230;28;20060;-73
2020/12/22 07:22:14;;;;;;;0.40;0.40;;;11.30;90.80;;;;;;5018435;28;20030;-73
2020/12/22 07:24:40;;;;;;;0.82;0.50;;;11.30;90.90;;;;;;5023331;28;20028;-73
2020/12/22 07:27:07;;;;;;;2.53;0.50;;;11.30;90.90;;;;;;4996452;28;20072;-73
2020/12/22 07:29:35;;;;;;;0.40;0.40;;;11.30;91.00;;;;;;5010647;28;20076;-72
2020/12/22 07:32:02;;;;;;;0.40;0.40;;;11.30;91.30;;;;;;4992613;28;20437;-73
2020/12/22 07:34:28;;;;;;;2.15;0.60;;;11.30;91.10;;;;;;5021850;28;20047;-73
2020/12/22 07:37:11;;;;;;;0.63;0.50;;;11.30;91.20;;;;;;5010860;28;20105;-72
2020/12/22 07:39:38;;;;;;;1.05;0.50;;;11.20;91.30;;;;;;4998880;28;20044;-73
2020/12/22 07:42:14;;;;;;;1.02;0.50;;;11.30;91.30;;;;;;5010186;28;20038;-73
2020/12/22 07:44:41;;;;;;;1.55;0.60;;;11.30;91.30;;;;;;4995455;28;20121;-73
2020/12/22 07:47:08;;;;;;;0.70;0.70;;;11.30;91.30;;;;;;5007410;28;20042;-73
2020/12/22 07:49:34;;;;;;;0.57;0.57;;;11.30;91.40;;;;;;5013501;28;20033;-73
2020/12/22 07:51:59;;;;;;;0.90;0.90;;;11.30;91.40;;;;;;4998383;28;20033;-73
2020/12/22 07:54:26;;;;;;;1.90;0.60;;;11.30;91.40;;;;;;5010770;28;20022;-73
2020/12/22 07:56:52;;;;;;;0.50;0.50;;;11.30;91.50;;;;;;5006225;28;20022;-73
2020/12/22 07:59:18;;;;;;;1.10;0.70;;;11.40;91.50;;;;;;5005788;28;20083;-73
2020/12/22 08:01:45;;;;;;;0.55;0.55;;;11.40;91.40;;;;;;5012318;28;20029;-73
2020/12/22 08:04:15;;;;;;;1.40;0.50;;;11.40;91.40;;;;;;5017715;28;20650;-72
2020/12/22 08:07:02;;;;;;;0.60;0.60;;;11.40;91.40;;;;;;5013643;28;20030;-73
2020/12/22 08:09:38;;;;;;;0.52;0.52;;;11.40;91.40;;;;;;5013165;28;20038;-73
2020/12/22 08:12:06;;;;;;;0.70;0.65;;;11.40;91.50;;;;;;5014525;28;20120;-74
2020/12/22 08:14:36;;;;;;;0.98;0.40;;;11.40;91.50;;;;;;5010560;28;20026;-73
2020/12/22 08:17:03;;;;;;;0.55;0.52;;;11.50;91.60;;;;;;5015525;28;20073;-73
2020/12/22 08:19:30;;;;;;;0.50;0.50;;;11.40;91.50;;;;;;5013443;28;20048;-73
2020/12/22 08:21:59;;;;;;;0.40;0.40;;;11.50;91.50;;;;;;5014105;28;20494;-74
2020/12/22 08:24:25;;;;;;;0.40;0.40;;;11.50;91.50;;;;;;5012299;28;20042;-73
2020/12/22 08:26:51;;;;;;;0.50;0.50;;;11.60;91.50;;;;;;5012529;28;20046;-73
2020/12/22 08:29:18;;;;;;;1.13;0.70;;;11.60;91.40;;;;;;5013245;28;20131;-73
2020/12/22 08:31:45;;;;;;;0.75;0.75;;;11.60;91.40;;;;;;5021227;28;20113;-74
2020/12/22 08:34:13;;;;;;;0.65;0.60;;;11.60;91.50;;;;;;5012371;28;20105;-73
2020/12/22 08:36:42;;;;;;;0.45;0.45;;;11.60;91.50;;;;;;5012783;28;20057;-73
2020/12/22 08:39:11;;;;;;;2.22;0.70;;;11.60;91.50;;;;;;5014907;28;20025;-73
2020/12/22 08:41:37;;;;;;;1.15;0.60;;;11.60;91.60;;;;;;5013967;28;20381;-73
2020/12/22 08:44:04;;;;;;;1.58;1.15;;;11.60;91.60;;;;;;4994948;28;20104;-73
2020/12/22 08:46:30;;;;;;;1.83;1.38;;;11.60;91.60;;;;;;5012710;28;20108;-73
2020/12/22 08:48:56;;;;;;;0.75;0.75;;;11.60;91.70;;;;;;5012496;28;20527;-73
2020/12/22 08:51:27;;;;;;;0.70;0.70;;;11.60;91.70;;;;;;5012555;28;20410;-73
2020/12/22 08:53:53;;;;;;;1.73;0.60;;;11.60;91.70;;;;;;5011739;28;20054;-73
2020/12/22 08:56:24;;;;;;;0.68;0.57;;;11.60;91.70;;;;;;5013774;28;20076;-73
2020/12/22 08:58:51;;;;;;;0.60;0.60;;;11.60;91.70;;;;;;5012393;28;20490;-73
2020/12/22 09:01:17;;;;;;;1.15;0.50;;;11.60;91.80;;;;;;5012548;28;20054;-73
2020/12/22 09:03:51;;;;;;;1.30;0.60;;;11.60;91.80;;;;;;5012678;28;20101;-73
2020/12/22 09:06:17;;;;;;;0.50;0.50;;;11.60;91.80;;;;;;5021231;28;20506;-73
2020/12/22 09:08:43;;;;;;;1.20;0.50;;;11.60;91.80;;;;;;5012192;28;20048;-73
2020/12/22 09:11:19;;;;;;;0.40;0.40;;;11.60;91.80;;;;;;5017347;28;20057;-74
2020/12/22 09:13:44;;;;;;;0.57;0.57;;;11.60;91.80;;;;;;5012057;28;20103;-74
2020/12/22 09:16:10;;;;;;;0.63;0.63;;;11.70;92.10;;;;;;4994295;28;20437;-73
2020/12/22 09:18:36;;;;;;;0.90;0.70;;;11.70;91.90;;;;;;4994558;28;20048;-74
2020/12/22 09:21:07;;;;;;;0.93;0.55;;;11.70;91.90;;;;;;5013424;28;20026;-74
2020/12/22 09:23:43;;;;;;;1.38;0.85;;;11.60;91.90;;;;;;5013176;28;20043;-74
2020/12/22 09:26:08;;;;;;;3.10;0.70;;;11.70;91.90;;;;;;5015363;28;20080;-75
2020/12/22 09:28:34;;;;;;;1.25;0.60;;;11.70;91.90;;;;;;5011726;28;20037;-74
2020/12/22 09:31:00;;;;;;;0.68;0.55;;;11.70;91.90;;;;;;5016170;28;20034;-74
2020/12/22 09:33:25;;;;;;;0.70;0.70;;;11.70;91.90;;;;;;5015622;28;20036;-74
2020/12/22 09:35:51;;;;;;;0.75;0.70;;;11.70;92.00;;;;;;5015380;28;20028;-74
2020/12/22 09:38:16;;;;;;;1.08;0.70;;;11.70;91.90;;;;;;5012007;28;20018;-73
2020/12/22 09:40:42;;;;;;;1.75;0.60;;;11.70;92.00;;;;;;5016629;28;20024;-74
2020/12/22 09:43:07;;;;;;;0.65;0.57;;;11.70;92.00;;;;;;5008604;23;20463;-68
2020/12/22 09:45:33;;;;;;;0.68;0.60;;;11.70;92.00;;;;;;5028076;28;20473;-67
2020/12/22 09:47:58;;;;;;;1.63;0.75;;;11.70;92.00;;;;;;5015971;28;20053;-67
2020/12/22 09:50:24;;;;;;;0.65;0.65;;;11.80;92.00;;;;;;4993969;28;20120;-67
2020/12/22 09:52:49;;;;;;;1.08;0.77;;;11.80;92.00;;;;;;4993617;28;20030;-66
2020/12/22 09:55:15;;;;;;;0.63;0.63;;;11.80;92.00;;;;;;4998383;28;20109;-67
2020/12/22 09:57:40;;;;;;;0.68;0.68;;;11.80;92.00;;;;;;5003240;28;20021;-67
2020/12/22 10:00:06;;;;;;;1.77;0.70;;;11.90;92.10;;;;;;5011015;28;20042;-67
2020/12/22 10:02:32;;;;;;;0.70;0.70;;;11.90;92.00;;;;;;5010551;28;20040;-67
2020/12/22 10:04:57;;;;;;;0.50;0.50;;;11.90;92.00;;;;;;5009937;28;20105;-67
2020/12/22 10:07:23;;;;;;;1.55;0.47;;;11.90;92.00;;;;;;5000672;28;20038;-67
2020/12/22 10:09:48;;;;;;;1.40;0.65;;;11.90;92.00;;;;;;4980184;28;20118;-67
2020/12/22 10:12:14;;;;;;;0.40;0.40;;;11.90;92.00;;;;;;4992625;28;20042;-67
2020/12/22 10:14:39;;;;;;;0.47;0.47;;;11.90;92.00;;;;;;5003954;28;20124;-65
2020/12/22 10:17:06;;;;;;;1.92;0.60;;;12.00;91.90;;;;;;4990606;28;20033;-64
2020/12/22 10:19:32;;;;;;;1.88;0.60;;;12.00;91.90;;;;;;4977284;28;20387;-65
2020/12/22 10:21:57;;;;;;;1.70;0.70;;;12.00;91.90;;;;;;4992753;28;20037;-70
2020/12/22 10:24:23;;;;;;;0.50;0.50;;;12.10;91.80;;;;;;4973984;28;20379;-66
2020/12/22 10:26:49;;;;;;;2.38;0.70;;;12.10;91.80;;;;;;5005229;28;20033;-66
2020/12/22 10:29:14;;;;;;;0.95;0.63;;;12.20;91.60;;;;;;5004531;28;20026;-66
2020/12/22 10:31:40;;;;;;;1.13;0.50;;;12.20;91.60;;;;;;4991121;28;20041;-66
2020/12/22 10:34:05;;;;;;;0.57;0.40;;;12.30;91.50;;;;;;5012627;28;20032;-66
2020/12/22 10:36:32;;;;;;;0.43;0.40;;;12.30;91.40;;;;;;4997104;28;20034;-66
2020/12/22 10:38:57;;;;;;;1.77;1.10;;;12.30;91.40;;;;;;5009853;28;20022;-67
2020/12/22 10:41:24;;;;;;;0.85;0.73;;;12.30;91.40;;;;;;4999591;28;20083;-66
2020/12/22 10:43:51;;;;;;;0.40;0.40;;;12.40;91.40;;;;;;5008611;28;20037;-68
2020/12/22 10:46:17;;;;;;;0.85;0.50;;;12.40;91.30;;;;;;5006845;28;20033;-66
2020/12/22 10:48:44;;;;;;;0.68;0.50;;;12.40;91.30;;;;;;5006774;28;20037;-67
2020/12/22 10:51:10;;;;;;;0.40;0.40;;;12.40;91.20;;;;;;4994497;28;20482;-67
2020/12/22 10:53:35;;;;;;;5.30;0.50;;;12.40;91.20;;;;;;4998484;28;20030;-67
2020/12/22 10:56:02;;;;;;;0.52;0.52;;;12.50;91.20;;;;;;4973362;28;20072;-67
2020/12/22 10:58:28;;;;;;;0.50;0.50;;;12.50;91.10;;;;;;5003052;28;20112;-67
2020/12/22 11:00:53;;;;;;;0.50;0.50;;;12.50;91.10;;;;;;4994267;28;20061;-67
2020/12/22 11:03:20;;;;;;;2.33;0.65;;;12.50;91.10;;;;;;5007684;28;20540;-67
2020/12/22 11:06:04;;;;;;;0.35;0.35;;;12.50;91.10;;;;;;4996702;28;20025;-67
2020/12/22 11:08:29;;;;;;;0.40;0.40;;;12.50;91.00;;;;;;4980241;28;20105;-66
2020/12/22 11:10:55;;;;;;;0.50;0.50;;;12.60;90.90;;;;;;5015151;28;20478;-66
2020/12/22 11:13:21;;;;;;;1.02;0.50;;;12.50;90.90;;;;;;5002056;28;20038;-66
2020/12/22 11:15:46;;;;;;;0.60;0.60;;;12.50;90.90;;;;;;5009854;28;20018;-66
2020/12/22 11:18:12;;;;;;;0.50;0.45;;;12.60;90.90;;;;;;4993721;28;20026;-67
2020/12/22 11:20:37;;;;;;;0.50;0.38;;;12.60;90.90;;;;;;5011260;28;20029;-67
2020/12/22 11:23:04;;;;;;;0.40;0.40;;;12.60;90.90;;;;;;5013558;28;20030;-67
2020/12/22 11:25:29;;;;;;;0.85;0.40;;;12.50;90.90;;;;;;4994803;28;20057;-66
2020/12/22 11:27:55;;;;;;;0.50;0.50;;;12.50;90.90;;;;;;5011854;28;20099;-66
2020/12/22 11:30:20;;;;;;;0.47;0.47;;;12.60;90.90;;;;;;4993191;28;20030;-66
2020/12/22 11:32:46;;;;;;;0.60;0.60;;;12.50;90.80;;;;;;5015137;28;20036;-66
2020/12/22 11:35:12;;;;;;;2.30;0.70;;;12.60;90.80;;;;;;4996865;28;20034;-67
2020/12/22 11:37:38;;;;;;;1.20;0.50;;;12.60;90.80;;;;;;5014707;28;20140;-66
2020/12/22 11:40:05;;;;;;;0.40;0.40;;;12.60;90.90;;;;;;5000385;28;20027;-66
2020/12/22 11:42:31;;;;;;;0.40;0.40;;;12.60;90.90;;;;;;4994501;28;20036;-66
2020/12/22 11:44:56;;;;;;;1.02;0.50;;;12.50;90.80;;;;;;4998648;28;20142;-66
2020/12/22 11:47:22;;;;;;;1.13;0.40;;;12.50;90.80;;;;;;4995945;28;20089;-66
2020/12/22 11:49:48;;;;;;;0.50;0.50;;;12.50;90.90;;;;;;4996474;28;20087;-65
2020/12/22 11:52:13;;;;;;;1.23;0.50;;;12.40;90.80;;;;;;4995460;28;20034;-65
2020/12/22 11:54:39;;;;;;;1.23;0.70;;;12.40;91.00;;;;;;5012599;28;20029;-66
2020/12/22 11:57:05;;;;;;;0.68;0.68;;;12.40;91.10;;;;;;5014616;28;20092;-65
2020/12/22 11:59:34;;;;;;;2.13;0.80;;;12.30;91.20;;;;;;5019890;28;20033;-65
2020/12/22 12:02:04;;;;;;;0.63;0.63;;;12.30;91.20;;;;;;4996067;28;20117;-65
2020/12/22 12:04:30;;;;;;;1.38;0.88;;;12.30;91.50;;;;;;5010597;28;20088;-65
2020/12/22 12:06:55;;;;;;;0.50;0.50;;;12.30;91.30;;;;;;4994758;28;20038;-66
2020/12/22 12:09:21;;;;;;;0.52;0.52;;;12.30;91.30;;;;;;4998464;28;20034;-65
2020/12/22 12:11:48;;;;;;;0.77;0.50;;;12.30;91.30;;;;;;4994178;28;20106;-66
2020/12/22 12:14:14;;;;;;;2.10;1.90;;;12.30;91.30;;;;;;4990607;28;20884;-66
2020/12/22 12:16:39;;;;;;;0.98;0.75;;;12.40;91.30;;;;;;5008932;28;20026;-66
2020/12/22 12:19:05;;;;;;;1.77;0.63;;;12.40;91.30;;;;;;4992815;28;20125;-65
2020/12/22 12:21:30;;;;;;;0.50;0.50;;;12.40;91.20;;;;;;4992815;28;20026;-65
2020/12/22 12:23:56;;;;;;;1.55;0.80;;;12.50;91.20;;;;;;4996120;28;20026;-65
2020/12/22 12:26:26;;;;;;;0.60;0.60;;;12.50;91.20;;;;;;5010391;28;20041;-66
2020/12/22 12:28:52;;;;;;;9.57;4.82;;;12.40;91.20;;;;;;5000596;28;20030;-66
2020/12/22 12:31:21;;;;;;;2.67;2.20;;;12.50;91.20;;;;;;5012460;28;20029;-66
2020/12/22 12:33:46;;;;;;;2.58;2.15;;;12.50;91.20;;;;;;4975910;28;20034;-66
2020/12/22 12:36:12;;;;;;;2.80;0.88;;;12.50;91.30;;;;;;5003253;28;20359;-66
2020/12/22 12:38:38;;;;;;;0.63;0.63;;;12.50;91.20;;;;;;4995518;28;20041;-67
2020/12/22 12:41:04;;;;;;;0.60;0.60;;;12.50;91.20;;;;;;4996135;28;20030;-66
2020/12/22 12:43:29;;;;;;;0.47;0.47;;;12.50;91.20;;;;;;4977073;28;20121;-66
2020/12/22 12:45:55;;;;;;;0.63;0.60;;;12.50;91.20;;;;;;5010059;28;20540;-66
2020/12/22 12:48:21;;;;;;;0.88;0.88;;;12.50;91.30;;;;;;5004305;28;20026;-66
2020/12/22 12:50:46;;;;;;;0.90;0.70;;;12.50;91.30;;;;;;5012058;28;20053;-66
2020/12/22 12:53:12;;;;;;;1.08;0.98;;;12.50;91.30;;;;;;4985803;28;20030;-66